Time;durP1;ratioP1;P1;durP2;ratioP2;P2;SDS_P1;SDS_P2;PMS_P1;PMS_P2;Temp;Humidity;BMP_temperature;BMP_pressure;BME280_temperature;BME280_humidity;BME280_pressure;Samples;Min_cycle;Max_cycle;Signal;HPM_P1;HPM_P2
2023/11/18 00:01:35;;;;;;;53.97;18.17;;;3.90;99.90;;;;;;5043201;28;20193;-82
2023/11/18 00:04:01;;;;;;;74.40;18.55;;;4.00;99.90;;;;;;5043572;28;20186;-82
2023/11/18 00:06:28;;;;;;;77.20;15.65;;;3.90;99.90;;;;;;5043393;28;20543;-82
2023/11/18 00:08:53;;;;;;;53.42;16.52;;;3.90;99.90;;;;;;5042992;28;20194;-82
2023/11/18 00:11:19;;;;;;;62.60;18.00;;;3.90;99.90;;;;;;5043248;28;20169;-82
2023/11/18 00:13:45;;;;;;;55.30;18.07;;;3.80;99.90;;;;;;5042397;28;20182;-82
2023/11/18 00:16:15;;;;;;;46.67;15.70;;;3.80;99.90;;;;;;5043450;28;20643;-82
2023/11/18 00:18:44;;;;;;;49.58;16.17;;;3.90;99.90;;;;;;5043362;28;20153;-82
2023/11/18 00:21:10;;;;;;;51.38;16.95;;;3.90;99.90;;;;;;5042460;28;20166;-82
2023/11/18 00:23:35;;;;;;;49.67;16.20;;;3.90;99.90;;;;;;5024391;28;20192;-82
2023/11/18 00:26:01;;;;;;;46.87;18.17;;;4.00;99.90;;;;;;5042437;28;20415;-82
2023/11/18 00:28:27;;;;;;;69.07;17.65;;;4.10;99.90;;;;;;5023634;28;20246;-82
2023/11/18 00:30:53;;;;;;;47.23;17.20;;;4.20;99.90;;;;;;5041814;28;20555;-82
2023/11/18 00:33:18;;;;;;;52.30;16.97;;;4.20;99.90;;;;;;5024026;28;20535;-82
2023/11/18 00:35:45;;;;;;;51.50;16.63;;;4.20;99.90;;;;;;5041562;28;20158;-82
2023/11/18 00:38:11;;;;;;;55.85;17.52;;;4.20;99.90;;;;;;5041638;28;20166;-82
2023/11/18 00:40:36;;;;;;;56.20;18.07;;;4.30;99.90;;;;;;5041791;28;20180;-82
2023/11/18 00:43:03;;;;;;;51.17;18.13;;;4.30;99.90;;;;;;5041373;28;20178;-82
2023/11/18 00:45:28;;;;;;;61.13;20.30;;;4.30;99.90;;;;;;5041641;28;20165;-82
2023/11/18 00:47:54;;;;;;;58.07;19.03;;;4.30;99.90;;;;;;5042836;28;20185;-82
2023/11/18 00:50:20;;;;;;;58.73;19.27;;;4.40;99.90;;;;;;5041869;28;20162;-82
2023/11/18 00:52:48;;;;;;;66.07;19.27;;;4.30;99.90;;;;;;5042290;28;20400;-82
2023/11/18 00:55:14;;;;;;;72.43;20.25;;;4.30;99.90;;;;;;5042929;28;20182;-82
2023/11/18 00:57:40;;;;;;;64.77;19.17;;;4.30;99.90;;;;;;5041861;28;20162;-82
2023/11/18 01:00:13;;;;;;;59.57;17.83;;;4.30;99.90;;;;;;5024624;28;20416;-82
2023/11/18 01:02:40;;;;;;;54.95;17.98;;;4.40;99.90;;;;;;5042260;28;20389;-82
2023/11/18 01:05:07;;;;;;;63.00;20.70;;;4.40;99.90;;;;;;5041543;28;20186;-82
2023/11/18 01:07:33;;;;;;;58.60;20.25;;;4.40;99.90;;;;;;5042556;28;20257;-82
2023/11/18 01:09:58;;;;;;;72.97;20.30;;;4.50;99.90;;;;;;5042222;28;20162;-82
2023/11/18 01:12:25;;;;;;;64.13;20.00;;;4.50;99.90;;;;;;5042689;28;20192;-82
2023/11/18 01:14:50;;;;;;;67.68;21.60;;;4.40;99.90;;;;;;5041414;28;20205;-82
2023/11/18 01:17:16;;;;;;;67.27;20.23;;;4.50;99.90;;;;;;5042337;28;20170;-82
2023/11/18 01:19:42;;;;;;;71.47;21.20;;;4.50;99.90;;;;;;5042218;28;20166;-82
2023/11/18 01:22:08;;;;;;;65.80;21.27;;;4.50;99.90;;;;;;5042719;28;20165;-82
2023/11/18 01:24:34;;;;;;;69.40;22.33;;;4.50;99.90;;;;;;5041990;28;20231;-82
2023/11/18 01:27:01;;;;;;;65.00;21.02;;;4.50;99.90;;;;;;5041945;28;20210;-82
2023/11/18 01:29:26;;;;;;;69.80;21.58;;;4.60;99.90;;;;;;5042019;28;20559;-82
2023/11/18 01:31:54;;;;;;;72.77;20.93;;;4.60;99.90;;;;;;5023573;28;20173;-82
2023/11/18 01:34:23;;;;;;;64.85;19.42;;;4.60;99.90;;;;;;5023447;28;20459;-82
2023/11/18 01:36:50;;;;;;;70.05;21.08;;;4.60;99.90;;;;;;5023462;28;20229;-82
2023/11/18 01:39:17;;;;;;;68.50;21.42;;;4.60;99.90;;;;;;5040964;28;20217;-82
2023/11/18 01:41:44;;;;;;;62.15;22.83;;;4.60;99.90;;;;;;5006875;28;20675;-82
2023/11/18 01:44:10;;;;;;;65.70;20.90;;;4.60;99.90;;;;;;5040683;28;20221;-82
2023/11/18 01:46:36;;;;;;;64.97;24.60;;;4.60;99.90;;;;;;5040320;28;20166;-82
2023/11/18 01:49:03;;;;;;;62.00;21.40;;;4.70;99.90;;;;;;5024277;28;20233;-82
2023/11/18 01:51:30;;;;;;;64.43;22.08;;;4.70;99.90;;;;;;5042294;28;20154;-82
2023/11/18 01:53:59;;;;;;;63.22;20.90;;;4.70;99.90;;;;;;5042613;28;20178;-82
2023/11/18 01:56:27;;;;;;;77.82;23.55;;;4.70;99.90;;;;;;5027992;28;20242;-82
2023/11/18 01:58:53;;;;;;;70.10;23.77;;;4.60;99.90;;;;;;5045395;28;20165;-82
2023/11/18 02:01:19;;;;;;;67.43;23.02;;;4.70;99.90;;;;;;5045670;28;20260;-82
2023/11/18 02:03:45;;;;;;;72.10;19.95;;;4.70;99.90;;;;;;5045659;28;20233;-82
2023/11/18 02:06:10;;;;;;;65.50;23.40;;;4.70;99.90;;;;;;5044160;28;20158;-82
2023/11/18 02:08:38;;;;;;;55.17;18.67;;;4.70;99.90;;;;;;5045254;28;20196;-82
2023/11/18 02:11:27;;;;;;;79.43;21.48;;;4.70;99.90;;;;;;5046175;28;20405;-82
2023/11/18 02:13:55;;;;;;;67.90;23.45;;;4.70;99.90;;;;;;5027296;28;20188;-82
2023/11/18 02:16:22;;;;;;;55.70;19.77;;;4.70;99.90;;;;;;5027179;28;20229;-82
2023/11/18 02:18:49;;;;;;;64.88;20.70;;;4.80;99.90;;;;;;5045878;28;20162;-82
2023/11/18 02:21:15;;;;;;;71.90;22.10;;;4.70;99.90;;;;;;5045130;28;20595;-82
2023/11/18 02:23:42;;;;;;;69.95;21.73;;;4.80;99.90;;;;;;5043937;28;20555;-82
2023/11/18 02:26:09;;;;;;;60.70;19.30;;;4.80;99.90;;;;;;5044386;28;20177;-82
2023/11/18 02:28:35;;;;;;;69.88;22.60;;;4.70;99.90;;;;;;5044278;28;20201;-82
2023/11/18 02:31:09;;;;;;;63.57;20.27;;;4.70;99.90;;;;;;5026487;28;20162;-82
2023/11/18 02:33:40;;;;;;;62.63;22.38;;;4.80;99.90;;;;;;5044887;28;20185;-82
2023/11/18 02:36:25;;;;;;;58.88;19.48;;;4.70;99.90;;;;;;5045727;28;20243;-82
2023/11/18 02:38:54;;;;;;;61.05;21.52;;;4.80;99.90;;;;;;5043715;28;20150;-82
2023/11/18 02:41:21;;;;;;;57.70;19.77;;;4.70;99.90;;;;;;5043366;28;20189;-82
2023/11/18 02:43:49;;;;;;;70.45;21.35;;;4.70;99.90;;;;;;5044232;28;20215;-82
2023/11/18 02:46:16;;;;;;;64.68;19.90;;;4.70;99.90;;;;;;5043966;28;20177;-82
2023/11/18 02:48:43;;;;;;;62.30;21.42;;;4.70;99.90;;;;;;5044199;28;20202;-82
2023/11/18 02:51:11;;;;;;;58.33;20.40;;;4.70;99.90;;;;;;5043494;28;20166;-82
2023/11/18 02:53:37;;;;;;;59.83;18.13;;;4.70;99.90;;;;;;5043747;28;20186;-82
2023/11/18 02:56:04;;;;;;;56.07;18.37;;;4.70;99.90;;;;;;5025933;28;20176;-82
2023/11/18 02:58:30;;;;;;;57.22;19.35;;;4.70;99.90;;;;;;5025345;28;20174;-82
2023/11/18 03:00:59;;;;;;;59.07;20.90;;;4.70;99.90;;;;;;5043397;28;20706;-82
2023/11/18 03:03:25;;;;;;;59.65;17.25;;;4.70;99.90;;;;;;5043902;28;20441;-82
2023/11/18 03:05:51;;;;;;;58.47;18.35;;;4.80;99.90;;;;;;5043392;28;20232;-82
2023/11/18 03:08:16;;;;;;;54.10;18.67;;;4.80;99.90;;;;;;5045176;28;20197;-82
2023/11/18 03:10:44;;;;;;;65.00;19.80;;;4.80;99.90;;;;;;5043655;28;20173;-82
2023/11/18 03:13:12;;;;;;;55.05;17.25;;;4.80;99.90;;;;;;5043628;28;20162;-82
2023/11/18 03:15:37;;;;;;;49.80;17.05;;;4.80;99.90;;;;;;5043699;28;20165;-82
2023/11/18 03:18:05;;;;;;;56.93;19.40;;;4.90;99.90;;;;;;5044474;28;20169;-82
2023/11/18 03:20:33;;;;;;;56.08;18.95;;;4.80;99.90;;;;;;5026059;28;20409;-82
2023/11/18 03:23:00;;;;;;;49.22;16.90;;;4.80;99.90;;;;;;5043602;28;20166;-82
2023/11/18 03:25:29;;;;;;;55.00;19.27;;;4.80;99.90;;;;;;5044000;28;20197;-82
2023/11/18 03:27:55;;;;;;;50.63;17.13;;;4.80;99.90;;;;;;5043538;28;20548;-82
2023/11/18 03:30:21;;;;;;;49.20;16.23;;;4.80;99.90;;;;;;5043658;28;20162;-82
2023/11/18 03:32:46;;;;;;;53.43;16.77;;;4.90;99.90;;;;;;5043782;28;20177;-82
2023/11/18 03:35:12;;;;;;;53.63;18.87;;;4.90;99.90;;;;;;5025450;28;20196;-82
2023/11/18 03:37:40;;;;;;;56.83;17.27;;;4.80;99.90;;;;;;5043396;28;20636;-82
2023/11/18 03:40:11;;;;;;;54.72;17.20;;;4.80;99.90;;;;;;5043749;28;20516;-82
2023/11/18 03:42:37;;;;;;;56.85;16.42;;;4.80;99.90;;;;;;5043530;28;20178;-82
2023/11/18 03:45:04;;;;;;;45.75;15.50;;;4.80;99.90;;;;;;5043137;28;20194;-82
2023/11/18 03:47:30;;;;;;;56.00;16.73;;;4.80;99.90;;;;;;5042353;28;20189;-82
2023/11/18 03:49:56;;;;;;;50.78;17.77;;;4.80;99.90;;;;;;5042429;28;20193;-82
2023/11/18 03:52:22;;;;;;;51.70;17.67;;;4.80;99.90;;;;;;5042849;28;20154;-82
2023/11/18 03:54:48;;;;;;;52.00;17.27;;;4.80;99.90;;;;;;5042650;28;20483;-82
2023/11/18 03:57:14;;;;;;;56.87;17.47;;;4.80;99.90;;;;;;5043184;28;20247;-82
2023/11/18 03:59:41;;;;;;;50.97;17.40;;;4.70;99.90;;;;;;5025460;28;20173;-82
2023/11/18 04:02:07;;;;;;;55.40;17.55;;;4.70;99.90;;;;;;5042218;28;20162;-82
2023/11/18 04:04:32;;;;;;;55.75;16.40;;;4.80;99.90;;;;;;5043123;28;20190;-82
2023/11/18 04:07:00;;;;;;;50.07;17.57;;;4.80;99.90;;;;;;5043287;28;20170;-82
2023/11/18 04:09:27;;;;;;;54.80;18.80;;;4.80;99.90;;;;;;5042610;28;20194;-82
2023/11/18 04:11:56;;;;;;;49.08;17.02;;;4.80;99.90;;;;;;5042970;28;20166;-82
2023/11/18 04:14:21;;;;;;;50.33;17.70;;;4.80;99.90;;;;;;5042763;28;20186;-82
2023/11/18 04:16:48;;;;;;;49.47;15.80;;;4.80;99.90;;;;;;5042472;28;20192;-82
2023/11/18 04:19:14;;;;;;;49.22;16.15;;;4.70;99.90;;;;;;5042385;28;20174;-82
2023/11/18 04:21:40;;;;;;;50.70;17.80;;;4.80;99.90;;;;;;5043316;28;20662;-82
2023/11/18 04:24:09;;;;;;;53.93;15.60;;;4.70;99.90;;;;;;5025268;28;20436;-82
2023/11/18 04:26:35;;;;;;;51.30;17.00;;;4.70;99.90;;;;;;5042556;28;20186;-82
2023/11/18 04:29:00;;;;;;;55.27;18.57;;;4.70;99.90;;;;;;5042382;28;20196;-82
2023/11/18 04:31:26;;;;;;;48.57;15.73;;;4.70;99.90;;;;;;5042602;28;20197;-82
2023/11/18 04:33:51;;;;;;;50.70;16.50;;;4.60;99.90;;;;;;5043166;28;20235;-82
2023/11/18 04:36:19;;;;;;;53.53;17.90;;;4.70;99.90;;;;;;5043041;28;20177;-82
2023/11/18 04:38:44;;;;;;;58.00;17.38;;;4.70;99.90;;;;;;5042639;28;20219;-82
2023/11/18 04:41:10;;;;;;;55.57;18.30;;;4.60;99.90;;;;;;5042337;28;20174;-82
2023/11/18 04:43:36;;;;;;;55.77;16.77;;;4.70;99.90;;;;;;5042593;28;20190;-82
2023/11/18 04:46:01;;;;;;;51.47;15.80;;;4.70;99.90;;;;;;5042406;28;20280;-82
2023/11/18 04:48:27;;;;;;;52.13;17.90;;;4.70;99.90;;;;;;5041916;28;20229;-82
2023/11/18 04:50:53;;;;;;;55.73;18.13;;;4.70;99.90;;;;;;5041448;28;20219;-82
2023/11/18 04:53:18;;;;;;;48.77;14.90;;;4.70;99.90;;;;;;5042195;28;20595;-82
2023/11/18 04:55:44;;;;;;;52.10;17.43;;;4.70;99.90;;;;;;5024783;28;20681;-82
2023/11/18 04:58:10;;;;;;;54.80;18.30;;;4.70;99.90;;;;;;5023834;28;20176;-82
2023/11/18 05:00:39;;;;;;;51.90;16.83;;;4.70;99.90;;;;;;5041273;28;20441;-82
2023/11/18 05:03:09;;;;;;;53.25;17.10;;;4.70;99.90;;;;;;5042064;28;20174;-82
2023/11/18 05:05:38;;;;;;;53.75;18.00;;;4.70;99.90;;;;;;5042389;28;20154;-82
2023/11/18 05:08:06;;;;;;;49.05;15.48;;;4.70;99.90;;;;;;5023676;28;20194;-82
2023/11/18 05:10:33;;;;;;;51.20;17.00;;;4.70;99.90;;;;;;5041128;28;20162;-82
2023/11/18 05:12:58;;;;;;;53.30;18.58;;;4.60;99.90;;;;;;5023024;28;20168;-82
2023/11/18 05:15:24;;;;;;;54.73;16.87;;;4.60;99.90;;;;;;5041102;28;20161;-82
2023/11/18 05:17:51;;;;;;;50.85;17.90;;;4.60;99.90;;;;;;5041464;28;20174;-82
2023/11/18 05:20:17;;;;;;;49.78;17.02;;;4.60;99.90;;;;;;5041566;28;20200;-82
2023/11/18 05:22:43;;;;;;;53.87;18.10;;;4.60;99.90;;;;;;5041619;28;20161;-81
2023/11/18 05:25:09;;;;;;;48.45;15.73;;;4.60;99.90;;;;;;5023475;28;20201;-82
2023/11/18 05:27:35;;;;;;;51.40;16.92;;;4.60;99.90;;;;;;5041404;28;20610;-82
2023/11/18 05:30:01;;;;;;;53.17;16.05;;;4.70;99.90;;;;;;5044667;28;20161;-82
2023/11/18 05:32:28;;;;;;;51.25;17.17;;;4.60;99.90;;;;;;5045606;28;20240;-82
2023/11/18 05:34:55;;;;;;;55.50;18.15;;;4.60;99.90;;;;;;5045426;28;20645;-82
2023/11/18 05:37:24;;;;;;;49.65;17.75;;;4.60;99.90;;;;;;5028299;28;20666;-82
2023/11/18 05:39:59;;;;;;;48.58;15.25;;;4.60;99.90;;;;;;5045616;28;20219;-82
2023/11/18 05:42:26;;;;;;;49.08;16.55;;;4.60;99.90;;;;;;5044774;28;20264;-82
2023/11/18 05:44:59;;;;;;;48.38;16.20;;;4.70;99.90;;;;;;5026796;28;20194;-82
2023/11/18 05:47:25;;;;;;;51.58;17.38;;;4.70;99.90;;;;;;5045224;28;20185;-82
2023/11/18 05:49:52;;;;;;;53.22;16.15;;;4.70;99.90;;;;;;5045338;28;20159;-82
2023/11/18 05:52:17;;;;;;;49.85;16.23;;;4.70;99.90;;;;;;5044924;28;20166;-82
2023/11/18 05:54:44;;;;;;;56.70;15.87;;;4.70;99.90;;;;;;5045074;28;20543;-82
2023/11/18 05:57:09;;;;;;;54.90;17.40;;;4.70;99.90;;;;;;5045131;28;20200;-82
2023/11/18 05:59:36;;;;;;;48.47;15.77;;;4.80;99.90;;;;;;5045245;28;20165;-82
2023/11/18 06:02:03;;;;;;;52.10;17.42;;;4.80;99.90;;;;;;5045187;28;20173;-82
2023/11/18 06:04:30;;;;;;;53.15;17.02;;;4.80;99.90;;;;;;5045222;28;20213;-82
2023/11/18 06:06:56;;;;;;;47.80;16.15;;;4.80;99.90;;;;;;5045256;28;20229;-82
2023/11/18 06:09:25;;;;;;;51.00;15.13;;;4.80;99.90;;;;;;5045281;28;20188;-82
2023/11/18 06:11:53;;;;;;;48.47;16.23;;;4.80;99.90;;;;;;5045143;28;20404;-82
2023/11/18 06:14:19;;;;;;;49.38;15.80;;;4.80;99.90;;;;;;5045004;28;20174;-82
2023/11/18 06:16:44;;;;;;;47.07;16.43;;;4.90;99.90;;;;;;5045714;28;20169;-82
2023/11/18 06:19:10;;;;;;;47.20;14.37;;;4.90;99.90;;;;;;5044988;28;20909;-82
2023/11/18 06:21:36;;;;;;;44.07;14.17;;;4.90;99.90;;;;;;5044780;28;20165;-82
2023/11/18 06:24:05;;;;;;;48.53;15.30;;;4.90;99.90;;;;;;5044603;28;20458;-82
2023/11/18 06:26:32;;;;;;;47.22;15.75;;;4.90;99.90;;;;;;5045000;28;20408;-82
2023/11/18 06:28:59;;;;;;;49.25;13.85;;;4.90;99.90;;;;;;5044416;28;20193;-82
2023/11/18 06:31:25;;;;;;;48.75;14.70;;;5.00;99.90;;;;;;5044696;28;20158;-82
2023/11/18 06:33:50;;;;;;;45.33;14.43;;;4.90;99.90;;;;;;5044094;28;20201;-82
2023/11/18 06:36:17;;;;;;;48.17;15.67;;;4.90;99.90;;;;;;5044126;28;20172;-81
2023/11/18 06:38:46;;;;;;;41.67;14.18;;;4.90;99.90;;;;;;5045554;28;20173;-82
2023/11/18 06:41:13;;;;;;;42.05;12.75;;;5.00;99.90;;;;;;5043939;28;20177;-81
2023/11/18 06:43:56;;;;;;;44.50;13.32;;;5.00;99.90;;;;;;5045675;28;20186;-82
2023/11/18 06:46:31;;;;;;;46.80;14.27;;;5.00;99.90;;;;;;5027258;28;20178;-81
2023/11/18 06:48:58;;;;;;;43.47;13.13;;;5.00;99.90;;;;;;5045872;28;20193;-82
2023/11/18 06:51:27;;;;;;;49.10;13.23;;;5.00;99.90;;;;;;5044397;28;20241;-82
2023/11/18 06:53:56;;;;;;;44.10;12.82;;;5.00;99.90;;;;;;5044398;28;20181;-82
2023/11/18 06:56:26;;;;;;;46.70;13.68;;;5.00;99.90;;;;;;5026713;28;20189;-82
2023/11/18 06:58:51;;;;;;;43.88;13.98;;;5.00;99.90;;;;;;5044989;28;20166;-82
2023/11/18 07:01:18;;;;;;;45.60;12.50;;;5.10;99.90;;;;;;5043590;28;20208;-82
2023/11/18 07:03:45;;;;;;;43.85;14.50;;;5.10;99.90;;;;;;5043074;28;20953;-82
2023/11/18 07:06:14;;;;;;;49.70;12.82;;;5.10;99.90;;;;;;5043074;28;20166;-81
2023/11/18 07:08:40;;;;;;;42.25;12.45;;;5.10;99.90;;;;;;5042872;28;20678;-82
2023/11/18 07:11:06;;;;;;;49.88;13.25;;;5.20;99.90;;;;;;5042967;28;20174;-82
2023/11/18 07:13:34;;;;;;;48.53;14.30;;;5.20;99.90;;;;;;5024577;28;20307;-81
2023/11/18 07:16:03;;;;;;;52.80;15.07;;;5.20;99.90;;;;;;5024737;28;20245;-82
2023/11/18 07:18:32;;;;;;;43.83;12.45;;;5.20;99.90;;;;;;5041535;28;20178;-82
2023/11/18 07:20:59;;;;;;;42.33;14.20;;;5.20;99.90;;;;;;5043262;28;20226;-82
2023/11/18 07:23:25;;;;;;;43.53;13.00;;;5.30;99.90;;;;;;5023708;28;20224;-82
2023/11/18 07:25:50;;;;;;;53.60;15.70;;;5.30;99.90;;;;;;5042484;28;20189;-81
2023/11/18 07:28:17;;;;;;;48.00;15.53;;;5.30;99.90;;;;;;5041461;28;20288;-81
2023/11/18 07:30:47;;;;;;;55.75;14.00;;;5.30;99.90;;;;;;5041909;28;20640;-81
2023/11/18 07:33:16;;;;;;;42.90;13.73;;;5.40;99.90;;;;;;5041618;28;20186;-81
2023/11/18 07:35:48;;;;;;;43.05;13.82;;;5.40;99.90;;;;;;5024144;28;20543;-81
2023/11/18 07:38:15;;;;;;;43.92;13.70;;;5.40;99.90;;;;;;5041909;28;20192;-81
2023/11/18 07:40:47;;;;;;;48.05;15.07;;;5.40;99.90;;;;;;5041689;28;20158;-81
2023/11/18 07:43:16;;;;;;;44.03;15.70;;;5.40;99.90;;;;;;5023837;28;20279;-81
2023/11/18 07:45:42;;;;;;;41.88;13.18;;;5.50;99.90;;;;;;5041086;28;20181;-81
2023/11/18 07:48:09;;;;;;;44.57;14.17;;;5.50;99.90;;;;;;5041644;28;20186;-81
2023/11/18 07:50:36;;;;;;;43.95;14.05;;;5.50;99.90;;;;;;5024341;28;20416;-81
2023/11/18 07:53:02;;;;;;;43.00;13.48;;;5.50;99.90;;;;;;5041671;28;20163;-81
2023/11/18 07:55:29;;;;;;;46.13;13.38;;;5.50;99.90;;;;;;5042205;28;20173;-82
2023/11/18 07:57:55;;;;;;;46.58;13.35;;;5.50;99.90;;;;;;5042455;28;20232;-81
2023/11/18 08:00:21;;;;;;;43.87;14.50;;;5.60;99.90;;;;;;5042847;28;20658;-81
2023/11/18 08:02:47;;;;;;;49.90;12.83;;;5.60;99.90;;;;;;5041736;28;20174;-81
2023/11/18 08:05:14;;;;;;;44.37;13.27;;;5.60;99.90;;;;;;5041410;28;20440;-81
2023/11/18 08:07:41;;;;;;;47.28;13.32;;;5.60;99.90;;;;;;5024001;28;20284;-82
2023/11/18 08:10:12;;;;;;;49.03;13.13;;;5.70;99.90;;;;;;5041657;28;20177;-81
2023/11/18 08:12:38;;;;;;;48.13;14.35;;;5.70;99.90;;;;;;5023475;28;20154;-81
2023/11/18 08:15:07;;;;;;;44.78;12.77;;;5.70;99.90;;;;;;5041794;28;20228;-81
2023/11/18 08:17:33;;;;;;;46.28;13.35;;;5.80;99.90;;;;;;5041784;28;20143;-81
2023/11/18 08:19:59;;;;;;;49.70;14.90;;;5.80;99.90;;;;;;5039426;28;20200;-81
2023/11/18 08:22:25;;;;;;;42.63;12.27;;;5.90;99.90;;;;;;5039135;28;20564;-81
2023/11/18 08:24:51;;;;;;;43.67;12.30;;;5.90;99.90;;;;;;5037676;28;20197;-81
2023/11/18 08:27:18;;;;;;;42.28;12.63;;;5.90;99.90;;;;;;5040225;28;20197;-81
2023/11/18 08:29:46;;;;;;;42.17;13.50;;;5.90;99.90;;;;;;5038875;28;20153;-81
2023/11/18 08:32:12;;;;;;;43.47;12.30;;;6.00;99.90;;;;;;5037474;28;20158;-81
2023/11/18 08:34:38;;;;;;;43.63;12.30;;;6.00;99.90;;;;;;5021048;28;20197;-81
2023/11/18 08:37:04;;;;;;;48.20;13.80;;;6.00;99.90;;;;;;5021696;28;20166;-82
2023/11/18 08:39:30;;;;;;;45.75;12.30;;;6.10;99.90;;;;;;5040418;28;20411;-81
2023/11/18 08:41:56;;;;;;;52.63;13.93;;;6.10;99.90;;;;;;5023509;28;20315;-81
2023/11/18 08:44:23;;;;;;;43.83;13.80;;;6.10;99.90;;;;;;5041004;28;20945;-81
2023/11/18 08:46:52;;;;;;;43.50;11.35;;;6.10;99.90;;;;;;5022926;28;20393;-81
2023/11/18 08:49:21;;;;;;;43.42;12.90;;;6.10;99.90;;;;;;5040685;28;20245;-81
2023/11/18 08:51:49;;;;;;;45.75;13.50;;;6.10;99.90;;;;;;5042438;28;20577;-81
2023/11/18 08:54:25;;;;;;;41.20;13.10;;;6.20;99.90;;;;;;5042176;28;20185;-81
2023/11/18 08:56:54;;;;;;;42.65;12.48;;;6.20;99.90;;;;;;5042271;28;20195;-81
2023/11/18 08:59:27;;;;;;;44.58;13.07;;;6.30;99.90;;;;;;5024329;28;20201;-81
2023/11/18 09:01:58;;;;;;;44.35;13.35;;;6.30;99.90;;;;;;5022820;28;20640;-81
2023/11/18 09:04:25;;;;;;;45.17;11.68;;;6.40;99.90;;;;;;5021796;28;20208;-81
2023/11/18 09:06:54;;;;;;;42.05;12.07;;;6.40;99.90;;;;;;5022392;28;20208;-81
2023/11/18 09:09:26;;;;;;;42.58;11.85;;;6.40;99.90;;;;;;5040746;28;20192;-81
2023/11/18 09:11:55;;;;;;;40.13;11.60;;;6.40;99.90;;;;;;5023565;28;20249;-81
2023/11/18 09:14:25;;;;;;;42.22;11.98;;;6.50;99.90;;;;;;5022510;28;20268;-81
2023/11/18 09:16:51;;;;;;;43.55;13.10;;;6.50;99.90;;;;;;5040974;28;20162;-81
2023/11/18 09:19:19;;;;;;;47.28;10.52;;;6.50;99.90;;;;;;5041629;28;20172;-81
2023/11/18 09:21:45;;;;;;;42.17;11.13;;;6.50;99.90;;;;;;5042187;28;20173;-81
2023/11/18 09:24:13;;;;;;;39.47;10.47;;;6.60;99.90;;;;;;5025122;28;20571;-81
2023/11/18 09:26:39;;;;;;;45.53;12.35;;;6.60;99.90;;;;;;5042400;28;20162;-81
2023/11/18 09:29:08;;;;;;;44.63;13.32;;;6.60;99.90;;;;;;5040718;28;20205;-81
2023/11/18 09:31:36;;;;;;;43.03;11.55;;;6.60;99.90;;;;;;5023734;28;20173;-81
2023/11/18 09:34:06;;;;;;;41.35;11.90;;;6.60;99.90;;;;;;5041087;28;20257;-81
2023/11/18 09:36:36;;;;;;;44.92;12.13;;;6.60;99.90;;;;;;5041140;28;20150;-81
2023/11/18 09:39:03;;;;;;;40.97;11.93;;;6.70;99.90;;;;;;5041290;28;20169;-81
2023/11/18 09:41:29;;;;;;;44.13;11.65;;;6.80;99.90;;;;;;5041358;28;20212;-81
2023/11/18 09:43:56;;;;;;;44.00;13.10;;;6.80;99.90;;;;;;5023515;28;20194;-81
2023/11/18 09:46:27;;;;;;;42.28;12.18;;;6.80;99.90;;;;;;5042047;28;20257;-82
2023/11/18 09:48:59;;;;;;;41.03;11.98;;;6.80;99.90;;;;;;5023390;28;20194;-81
2023/11/18 09:51:30;;;;;;;43.25;12.60;;;6.90;99.90;;;;;;5041877;28;20208;-81
2023/11/18 09:54:03;;;;;;;42.03;11.30;;;7.00;99.90;;;;;;5042882;28;20247;-81
2023/11/18 09:57:08;;;;;;;41.53;10.80;;;7.00;99.90;;;;;;5042095;28;20174;-81
2023/11/18 09:59:44;;;;;;;39.47;11.32;;;7.00;99.90;;;;;;5042582;28;20626;-81
2023/11/18 10:02:10;;;;;;;38.85;11.10;;;7.10;99.90;;;;;;5023998;28;20233;-81
2023/11/18 10:04:39;;;;;;;39.70;9.25;;;7.10;99.90;;;;;;5043362;28;20196;-81
2023/11/18 10:07:14;;;;;;;41.20;10.02;;;7.10;99.90;;;;;;5042617;28;20221;-81
2023/11/18 10:09:43;;;;;;;38.65;9.15;;;7.20;99.90;;;;;;5025517;28;20173;-81
2023/11/18 10:12:11;;;;;;;40.15;11.60;;;7.20;99.90;;;;;;5025512;28;20178;-81
2023/11/18 10:14:45;;;;;;;41.58;9.50;;;7.20;99.90;;;;;;5025911;28;20272;-81
2023/11/18 10:17:14;;;;;;;37.08;8.48;;;7.20;99.90;;;;;;5029302;28;20158;-81
2023/11/18 10:19:57;;;;;;;40.80;10.35;;;7.20;99.90;;;;;;5047277;28;20158;-81
2023/11/18 10:22:26;;;;;;;39.00;10.10;;;7.30;99.90;;;;;;5047261;28;20194;-81
2023/11/18 10:24:54;;;;;;;37.92;8.60;;;7.30;99.90;;;;;;5029385;28;20207;-81
2023/11/18 10:27:23;;;;;;;37.92;9.57;;;7.30;99.90;;;;;;5046635;28;20253;-81
2023/11/18 10:29:52;;;;;;;36.80;9.35;;;7.30;99.90;;;;;;5028871;28;20220;-81
2023/11/18 10:32:21;;;;;;;36.28;9.02;;;7.30;99.90;;;;;;5047174;28;20165;-81
2023/11/18 10:34:49;;;;;;;37.30;9.23;;;7.30;99.90;;;;;;5046693;28;20196;-81
2023/11/18 10:37:16;;;;;;;34.58;6.88;;;7.30;99.90;;;;;;5028917;28;20166;-81
2023/11/18 10:39:51;;;;;;;39.17;8.60;;;7.30;99.90;;;;;;5047079;28;20189;-81
2023/11/18 10:42:18;;;;;;;36.33;8.50;;;7.30;99.90;;;;;;5046515;28;20177;-81
2023/11/18 10:45:01;;;;;;;36.88;8.48;;;7.40;99.90;;;;;;5047028;28;20728;-81
2023/11/18 10:47:28;;;;;;;38.58;8.55;;;7.40;99.90;;;;;;5028700;28;20288;-81
2023/11/18 10:49:58;;;;;;;38.25;8.75;;;7.40;99.90;;;;;;5027490;28;20212;-81
2023/11/18 10:52:34;;;;;;;37.72;8.95;;;7.40;99.90;;;;;;5026685;28;20170;-81
2023/11/18 10:55:07;;;;;;;44.53;9.05;;;7.40;99.90;;;;;;5043218;28;20173;-80
2023/11/18 10:57:35;;;;;;;35.05;8.30;;;7.40;99.90;;;;;;5042677;28;20205;-80
2023/11/18 11:00:14;;;;;;;36.95;8.43;;;7.40;99.90;;;;;;5043343;28;20166;-80
2023/11/18 11:02:41;;;;;;;38.88;8.77;;;7.40;99.90;;;;;;5043503;28;20150;-80
2023/11/18 11:05:17;;;;;;;36.05;8.90;;;7.40;99.90;;;;;;5025260;28;20559;-80
2023/11/18 11:07:43;;;;;;;35.80;8.55;;;7.40;99.90;;;;;;5042748;28;20565;-80
2023/11/18 11:10:10;;;;;;;37.77;9.33;;;7.40;99.90;;;;;;5042184;28;20187;-80
2023/11/18 11:12:52;;;;;;;37.38;9.05;;;7.40;99.90;;;;;;5042313;28;20404;-80
2023/11/18 11:15:28;;;;;;;39.85;9.18;;;7.40;99.90;;;;;;5041659;28;20146;-80
2023/11/18 11:17:55;;;;;;;34.08;8.63;;;7.40;99.90;;;;;;5041876;28;20635;-80
2023/11/18 11:20:36;;;;;;;39.67;9.63;;;7.40;99.90;;;;;;5041782;28;20176;-80
2023/11/18 11:23:10;;;;;;;35.22;8.27;;;7.40;99.90;;;;;;5042202;28;20260;-80
2023/11/18 11:26:05;;;;;;;35.58;7.57;;;7.40;99.90;;;;;;5041470;28;20146;-80
2023/11/18 11:29:06;;;;;;;38.20;7.88;;;7.40;99.90;;;;;;5030926;28;20206;-80
2023/11/18 11:32:14;;;;;;;37.13;8.07;;;7.50;99.90;;;;;;5022966;28;20173;-80
2023/11/18 11:35:16;;;;;;;34.70;8.40;;;7.50;99.90;;;;;;5040219;28;20185;-80
2023/11/18 11:37:44;;;;;;;31.83;6.60;;;7.60;99.90;;;;;;5021429;28;20188;-80
2023/11/18 11:40:12;;;;;;;35.22;7.88;;;7.60;99.90;;;;;;5041467;28;20642;-80
2023/11/18 11:42:42;;;;;;;34.78;7.70;;;7.60;99.90;;;;;;5024324;28;20193;-81
2023/11/18 11:45:19;;;;;;;35.85;7.97;;;7.70;99.90;;;;;;5023935;28;20186;-81
2023/11/18 11:47:50;;;;;;;36.38;8.25;;;7.60;99.90;;;;;;5023441;28;20189;-81
2023/11/18 11:50:31;;;;;;;32.88;7.15;;;7.60;99.90;;;;;;5042560;28;20166;-81
2023/11/18 11:53:13;;;;;;;37.00;8.95;;;7.70;99.90;;;;;;5041746;28;20146;-81
2023/11/18 11:55:51;;;;;;;38.80;7.43;;;7.70;99.90;;;;;;5024013;28;20150;-81
2023/11/18 11:58:31;;;;;;;34.28;6.93;;;7.70;99.90;;;;;;5024339;28;20158;-81
2023/11/18 12:01:01;;;;;;;35.83;6.35;;;7.80;99.90;;;;;;5042286;28;20168;-81
2023/11/18 12:03:36;;;;;;;35.95;6.85;;;7.80;99.90;;;;;;5023668;28;20575;-81
2023/11/18 12:06:07;;;;;;;32.58;6.15;;;7.80;99.90;;;;;;5041696;28;20149;-81
2023/11/18 12:08:36;;;;;;;35.67;7.25;;;7.80;99.90;;;;;;5024230;28;20691;-81
2023/11/18 12:11:02;;;;;;;33.33;6.90;;;7.80;99.90;;;;;;5041395;28;20703;-81
2023/11/18 12:13:32;;;;;;;34.55;6.90;;;7.80;99.90;;;;;;5023464;28;20193;-81
2023/11/18 12:15:58;;;;;;;34.60;6.68;;;7.90;99.90;;;;;;5023660;28;20170;-81
2023/11/18 12:18:24;;;;;;;39.50;7.70;;;7.90;99.90;;;;;;5042168;28;20173;-81
2023/11/18 12:20:57;;;;;;;34.83;7.90;;;7.90;99.90;;;;;;5042096;28;20404;-81
2023/11/18 12:23:26;;;;;;;34.85;7.70;;;7.90;99.90;;;;;;5041857;28;20185;-81
2023/11/18 12:25:56;;;;;;;41.60;8.50;;;7.90;99.90;;;;;;5042822;28;20158;-81
2023/11/18 12:28:35;;;;;;;35.72;6.80;;;7.90;99.90;;;;;;5023892;28;20232;-81
2023/11/18 12:31:17;;;;;;;37.53;6.65;;;7.90;99.90;;;;;;5024992;28;20160;-81
2023/11/18 12:34:02;;;;;;;36.30;7.28;;;7.90;99.90;;;;;;5041753;28;20269;-81
2023/11/18 12:36:35;;;;;;;34.45;6.80;;;7.90;99.90;;;;;;5024516;28;20158;-81
2023/11/18 12:39:37;;;;;;;37.20;7.13;;;7.90;99.90;;;;;;5041911;28;20154;-81
2023/11/18 12:42:11;;;;;;;35.55;6.22;;;7.90;99.90;;;;;;5041876;28;20587;-80
2023/11/18 12:44:52;;;;;;;33.75;6.00;;;7.90;99.90;;;;;;5042296;28;20190;-81
2023/11/18 12:47:28;;;;;;;31.98;6.38;;;7.90;99.90;;;;;;5042012;28;20154;-81